Groton-New London Information

FAA: GON - ICAO: KGON

Groton-New London (Airport) Location

State Connecticut
County New London
City Groton (New London)
Groton-New London (Airport) is 3 miles southeast of Groton (New London), CT.
Latitude 41-19-48.2000N
Longitude 072-02-42.5000W
Elevation 9ft

Groton-New London METARs

METAR KGON 070756Z AUTO 29016G22KT 10SM CLR 05/M04 A2990 RMK AO2 SLP126 T00501044
Altimeter 29.90"
Temperature 5.0°C (41.0°F)
Wind 290° at 16KT with gusts to 22KT
Clouds Skies are clear.
Visibility 10.0mi
Time observed: 2021-12-07T07:56:00Z

Groton-New London (Airport) Details

Status Operational
Activation April 1940
Ownership Public
Usage Public
Chart NEW YORK
ATC on-site Yes
Beacon schedule sunset-sunrise
Beacon color clear green

Groton-New London (Airport) Contacts

Owner CONNECTICUT AIRPORT AUTHORITY
Owner address BRADLEY INTERNATIONAL AIRPORT, ADMIN OFFICES TERMINAL A 3RD FLOOR, WINDSOR LOCKS, CT 06096
Owner phone 860-292-2083
Manager JOHN L MCLEOD
Manager address 330 MARKET STREET, PHILADELPHIA, PA 19106
Manager phone 215-922-4820

Groton-New London Radio Frequencies

Groton-New London (Airport) Radio Frequencies

UNICOM N/A
Common traffic advisory frequency (CTAF) 125.6